Weather at Upshur County Regional Airport

Public forecast

Using degrees Fahrenheit for public forecast. Weather courtesy of forecast.io.

Current aviation weather report (METAR) for Upshur County Regional Airport

2024/06/23 18:35 (retrieved 26 minutes ago)

KW22 231835Z AUTO 23013G20KT 10SM FEW110 33/21 A2985 RMK AO2

Closest aviation forecast (TAF) to Upshur County Regional Airport

Closest forecast is North Central West Virginia Airport, 17.9 nm (33.2 km) N.

2024/06/23 18:22 (retrieved 39 minutes ago)

TAF KCKB 231720Z 2318/2418 23013G24KT P6SM VCSH SCT040 BKN100 FM232100 24010G21KT 6SM -SHRA BR BKN050 TEMPO 2321/2324 4SM TSRA BR BKN025CB FM240000 24008KT 6SM -SHRA BR VCTS BKN050CB FM240400 25005KT P6SM VCTS BKN025CB FM240600 28005KT P6SM BKN025 FM241500 31007KT P6SM SCT040